Time;durP1;ratioP1;P1;durP2;ratioP2;P2;SDS_P1;SDS_P2;PMS_P1;PMS_P2;Temp;Humidity;BMP_temperature;BMP_pressure;BME280_temperature;BME280_humidity;BME280_pressure;Samples;Min_cycle;Max_cycle;Signal;HPM_P1;HPM_P2
2022/06/06 00:02:29;;;;;;;3.27;1.90;;;19.50;90.10;20.10;96573.00;;;;5091029;28;20196;-82
2022/06/06 00:04:57;;;;;;;2.20;1.87;;;19.60;90.10;20.10;96570.00;;;;5106504;28;20245;-83
2022/06/06 00:07:26;;;;;;;1.80;1.50;;;19.50;90.00;20.10;96575.00;;;;5116361;28;20223;-83
2022/06/06 00:09:54;;;;;;;4.27;1.63;;;19.50;90.00;20.00;96570.00;;;;5113815;28;20248;-83
2022/06/06 00:12:23;;;;;;;1.93;1.80;;;19.50;90.20;20.00;96562.00;;;;5107562;28;20259;-83
2022/06/06 00:14:51;;;;;;;1.60;1.50;;;19.50;89.80;20.00;96570.00;;;;5105594;28;20195;-83
2022/06/06 00:17:18;;;;;;;1.83;1.67;;;19.50;89.70;19.90;96573.00;;;;5104781;28;20207;-83
2022/06/06 00:19:47;;;;;;;1.40;1.30;;;19.40;89.60;19.90;96574.00;;;;5106163;28;20211;-83
2022/06/06 00:22:15;;;;;;;2.93;1.70;;;19.40;89.50;19.90;96577.00;;;;5104453;28;20733;-83
2022/06/06 00:24:43;;;;;;;1.50;1.40;;;19.40;89.40;19.90;96578.00;;;;5106391;28;20195;-83
2022/06/06 00:27:10;;;;;;;1.80;1.70;;;19.30;89.30;19.80;96584.00;;;;5103945;28;20223;-83
2022/06/06 00:29:38;;;;;;;1.90;1.63;;;19.40;89.40;19.80;96578.00;;;;5105738;28;20231;-83
2022/06/06 00:34:53;;;;;;;1.97;1.70;;;19.30;89.60;19.80;96586.00;;;;5105457;28;20218;-83
2022/06/06 00:37:26;;;;;;;1.63;1.43;;;19.30;89.60;19.80;96588.00;;;;5104990;28;20238;-83
2022/06/06 00:39:55;;;;;;;3.70;1.80;;;19.30;89.60;19.70;96593.00;;;;5116682;22;20687;-81
2022/06/06 00:42:26;;;;;;;1.50;1.40;;;19.20;89.60;19.70;96599.00;;;;5097603;28;20220;-82
2022/06/06 00:45:36;;;;;;;3.10;1.50;;;19.20;89.60;19.70;96592.00;;;;5091518;28;20196;-81
2022/06/06 00:48:24;;;;;;;1.73;1.63;;;19.20;89.10;19.70;96596.00;;;;5080863;28;20286;-81
2022/06/06 00:51:02;;;;;;;1.70;1.50;;;19.20;89.10;19.60;96596.00;;;;5082925;28;20202;-81
2022/06/06 00:53:40;;;;;;;1.43;1.33;;;19.20;89.20;19.60;96589.00;;;;5099422;28;20206;-82
2022/06/06 00:56:18;;;;;;;2.53;2.00;;;19.20;89.10;19.60;96591.00;;;;5082784;28;20199;-82
2022/06/06 00:58:49;;;;;;;1.80;1.40;;;19.10;88.90;19.60;96586.00;;;;5075779;28;20216;-83
2022/06/06 01:01:16;;;;;;;1.70;1.60;;;19.10;89.00;19.60;96600.00;;;;5077513;28;20203;-85
2022/06/06 01:03:45;;;;;;;2.60;1.70;;;19.10;89.10;19.60;96601.00;;;;5076497;28;20253;-83
2022/06/06 01:06:18;;;;;;;2.17;1.70;;;19.00;88.80;19.50;96607.00;;;;5072981;28;20246;-84
2022/06/06 01:08:50;;;;;;;2.37;1.67;;;19.00;88.80;19.50;96606.00;;;;5077468;28;20223;-84
2022/06/06 01:11:17;;;;;;;5.50;1.77;;;19.00;88.80;19.50;96603.00;;;;5091768;28;20207;-84
2022/06/06 01:13:48;;;;;;;2.50;1.77;;;19.00;88.80;19.50;96606.00;;;;5094847;28;20199;-84
2022/06/06 01:16:35;;;;;;;1.80;1.70;;;19.00;88.90;19.40;96605.00;;;;5096764;28;20199;-85
2022/06/06 01:19:38;;;;;;;4.00;1.70;;;19.00;88.80;19.40;96602.00;;;;5095895;28;20272;-84
2022/06/06 01:22:59;;;;;;;2.00;1.90;;;18.90;88.50;19.40;96600.00;;;;5094084;28;20443;-84
2022/06/06 01:26:32;;;;;;;3.13;1.80;;;18.90;88.60;19.40;96605.00;;;;5042953;28;20232;-85
2022/06/06 01:29:07;;;;;;;1.90;1.70;;;18.90;88.70;19.30;96602.00;;;;5074485;28;20235;-84
2022/06/06 01:31:43;;;;;;;2.57;1.60;;;18.90;89.20;19.30;96603.00;;;;5066496;28;20199;-85
2022/06/06 01:34:14;;;;;;;1.57;1.47;;;18.90;89.20;19.30;96600.00;;;;5076093;28;20268;-85
2022/06/06 01:36:42;;;;;;;4.30;2.03;;;18.90;89.30;19.30;96600.00;;;;5075293;28;20204;-84
2022/06/06 01:39:13;;;;;;;1.87;1.77;;;18.80;89.40;19.30;96606.00;;;;5075413;28;20299;-85
2022/06/06 01:41:52;;;;;;;2.40;2.20;;;18.90;89.50;19.30;96598.00;;;;5075845;28;20191;-85
2022/06/06 01:44:32;;;;;;;1.83;1.33;;;18.80;89.30;19.30;96606.00;;;;5075868;28;20649;-84
2022/06/06 01:47:06;;;;;;;1.50;1.40;;;18.80;89.00;19.30;96607.00;;;;5075829;28;20294;-85
2022/06/06 01:49:36;;;;;;;1.70;1.60;;;18.80;89.00;19.30;96598.00;;;;5075005;28;20683;-85
2022/06/06 01:52:10;;;;;;;2.40;1.70;;;18.80;89.00;19.30;96603.00;;;;5076230;28;20278;-85
2022/06/06 01:54:39;;;;;;;2.27;1.70;;;18.80;88.80;19.30;96608.00;;;;5076128;28;20196;-85
2022/06/06 01:57:12;;;;;;;2.13;1.60;;;18.80;88.90;19.30;96603.00;;;;5075533;28;20196;-85
2022/06/06 01:59:44;;;;;;;3.20;1.87;;;18.80;88.90;19.20;96600.00;;;;5070560;28;20705;-85
2022/06/06 02:02:12;;;;;;;2.43;2.00;;;18.80;88.90;19.20;96598.00;;;;5071884;28;20656;-85
2022/06/06 02:04:39;;;;;;;1.77;1.67;;;18.80;89.00;19.20;96605.00;;;;5076020;28;20196;-85
2022/06/06 02:07:07;;;;;;;2.10;2.00;;;18.70;88.60;19.20;96603.00;;;;5074762;28;20226;-86
2022/06/06 02:09:34;;;;;;;1.70;1.60;;;18.70;88.50;19.20;96600.00;;;;5075484;28;20235;-85
2022/06/06 02:12:03;;;;;;;1.90;1.80;;;18.70;88.30;19.20;96604.00;;;;5078041;28;20192;-85
2022/06/06 02:14:30;;;;;;;2.27;1.80;;;18.70;88.40;19.20;96602.00;;;;5080137;28;20192;-85
2022/06/06 02:17:00;;;;;;;2.00;1.90;;;18.70;88.40;19.10;96608.00;;;;5078921;28;20578;-85
2022/06/06 02:19:28;;;;;;;6.10;2.50;;;18.70;88.50;19.10;96614.00;;;;5080426;28;20583;-84
2022/06/06 02:21:55;;;;;;;2.87;1.90;;;18.60;88.50;19.10;96607.00;;;;5080183;28;20573;-86
2022/06/06 02:24:22;;;;;;;2.10;1.90;;;18.60;88.50;19.10;96613.00;;;;5079140;28;20207;-85
2022/06/06 02:26:50;;;;;;;1.57;1.47;;;18.60;88.50;19.10;96608.00;;;;5080138;28;20211;-84
2022/06/06 02:29:17;;;;;;;2.50;2.00;;;18.60;88.50;19.10;96617.00;;;;5079750;28;20220;-85
2022/06/06 02:31:45;;;;;;;2.73;1.93;;;18.60;88.50;19.00;96608.00;;;;5068462;28;20293;-85
2022/06/06 02:34:17;;;;;;;1.80;1.70;;;18.60;88.70;19.00;96611.00;;;;5059239;28;20264;-84
2022/06/06 02:36:44;;;;;;;2.17;2.07;;;18.60;88.80;19.00;96615.00;;;;5059486;28;20196;-86
2022/06/06 02:39:26;;;;;;;1.97;1.53;;;18.60;89.00;19.10;96617.00;;;;5078631;28;20228;-85
2022/06/06 02:41:53;;;;;;;1.97;1.87;;;18.60;89.10;19.10;96612.00;;;;5078148;28;20204;-85
2022/06/06 02:44:21;;;;;;;2.40;1.97;;;18.60;89.30;19.10;96622.00;;;;5079879;28;20231;-85
2022/06/06 02:46:48;;;;;;;1.80;1.70;;;18.60;89.40;19.10;96620.00;;;;5078932;28;20235;-85
2022/06/06 02:49:22;;;;;;;2.23;2.00;;;18.60;89.50;19.10;96625.00;;;;5078511;28;20837;-85
2022/06/06 02:51:53;;;;;;;1.83;1.73;;;18.60;89.40;19.20;96627.00;;;;5077612;28;20195;-85
2022/06/06 02:54:20;;;;;;;2.67;1.90;;;18.60;89.40;19.20;96633.00;;;;5078654;28;20628;-86
2022/06/06 02:56:48;;;;;;;3.07;1.87;;;18.70;89.40;19.20;96633.00;;;;5077828;28;20196;-85
2022/06/06 02:59:21;;;;;;;2.10;1.90;;;18.70;89.50;19.30;96628.00;;;;5077565;28;20285;-85
2022/06/06 03:01:48;;;;;;;2.13;2.03;;;18.70;89.60;19.30;96630.00;;;;5066310;28;20660;-85
2022/06/06 03:04:17;;;;;;;3.03;2.00;;;18.70;89.60;19.30;96632.00;;;;5059799;28;20235;-85
2022/06/06 03:07:01;;;;;;;2.63;1.90;;;18.80;89.50;19.40;96641.00;;;;5058585;28;20217;-86
2022/06/06 03:09:45;;;;;;;1.90;1.73;;;18.70;89.30;19.40;96632.00;;;;5058781;28;20235;-85
2022/06/06 03:12:36;;;;;;;1.67;1.57;;;18.80;89.30;19.40;96637.00;;;;5058180;28;20214;-85
2022/06/06 03:15:37;;;;;;;2.27;1.70;;;18.80;89.10;19.40;96632.00;;;;5057200;28;20274;-85
2022/06/06 03:21:33;;;;;;;2.03;1.90;;;18.90;89.30;19.40;96642.00;;;;5077031;28;20218;-85
2022/06/06 03:24:21;;;;;;;1.77;1.47;;;18.90;89.20;19.50;96640.00;;;;5075966;28;20282;-85
2022/06/06 03:27:15;;;;;;;2.00;1.90;;;18.90;89.10;19.50;96649.00;;;;5057381;28;20651;-85
2022/06/06 03:30:04;;;;;;;2.10;1.77;;;18.90;88.90;19.50;96654.00;;;;5077655;28;20210;-86
2022/06/06 03:33:22;;;;;;;1.60;1.50;;;18.90;88.70;19.50;96663.00;;;;5058604;28;20570;-85
2022/06/06 03:36:05;;;;;;;2.30;2.10;;;18.90;88.50;19.50;96664.00;;;;5056461;28;20177;-84
2022/06/06 03:38:44;;;;;;;2.77;2.07;;;18.90;88.50;19.50;96670.00;;;;5057643;28;20224;-85
2022/06/06 03:41:33;;;;;;;2.07;1.87;;;18.90;88.50;19.40;96679.00;;;;5057768;28;20220;-85
2022/06/06 03:44:26;;;;;;;2.83;1.83;;;18.90;88.20;19.40;96674.00;;;;5058393;28;20212;-85
2022/06/06 03:47:06;;;;;;;1.57;1.47;;;18.90;88.00;19.40;96673.00;;;;5056890;28;20705;-85
2022/06/06 03:49:50;;;;;;;4.20;1.80;;;18.90;87.90;19.40;96669.00;;;;5058147;28;20228;-84
2022/06/06 03:52:27;;;;;;;1.70;1.60;;;18.90;87.80;19.40;96670.00;;;;5057736;28;20207;-85
2022/06/06 03:55:11;;;;;;;2.30;1.60;;;18.90;88.00;19.40;96670.00;;;;5062770;28;20627;-85
2022/06/06 03:57:42;;;;;;;2.13;1.70;;;18.90;87.90;19.40;96664.00;;;;5070687;28;20225;-85
2022/06/06 04:00:14;;;;;;;1.87;1.77;;;18.90;88.00;19.40;96674.00;;;;5057137;28;20735;-85
2022/06/06 04:02:48;;;;;;;2.77;1.77;;;18.90;87.90;19.40;96672.00;;;;5068843;28;20745;-85
2022/06/06 04:05:22;;;;;;;1.63;1.53;;;18.80;87.60;19.40;96676.00;;;;5077259;28;20218;-86
2022/06/06 04:07:50;;;;;;;2.37;1.77;;;18.80;87.60;19.40;96676.00;;;;5077864;28;20230;-84
2022/06/06 04:10:22;;;;;;;1.60;1.50;;;18.80;87.80;19.40;96677.00;;;;5077388;28;20204;-84
2022/06/06 04:13:19;;;;;;;1.53;1.43;;;18.80;88.00;19.40;96674.00;;;;5076834;28;20705;-86
2022/06/06 04:15:59;;;;;;;2.00;1.80;;;18.80;87.80;19.50;96678.00;;;;5077187;28;20208;-85
2022/06/06 04:18:46;;;;;;;1.73;1.63;;;18.90;88.40;19.50;96681.00;;;;5077478;28;20227;-86
2022/06/06 04:21:30;;;;;;;1.90;1.80;;;18.90;88.70;19.50;96687.00;;;;5076420;28;20203;-85
2022/06/06 04:24:28;;;;;;;1.90;1.80;;;18.90;88.90;19.60;96685.00;;;;5076052;28;20222;-84
2022/06/06 04:27:08;;;;;;;2.13;1.83;;;18.90;89.00;19.60;96683.00;;;;5058202;28;20244;-85
2022/06/06 04:29:47;;;;;;;1.77;1.67;;;19.00;89.30;19.70;96679.00;;;;5057483;28;20200;-85
2022/06/06 04:32:29;;;;;;;3.07;2.13;;;19.00;89.30;19.70;96685.00;;;;5072723;28;20211;-85
2022/06/06 04:35:06;;;;;;;1.97;1.70;;;19.00;89.40;19.80;96682.00;;;;5076599;28;20195;-85
2022/06/06 04:37:44;;;;;;;2.10;1.90;;;19.10;89.70;19.90;96680.00;;;;5075967;28;20582;-85
2022/06/06 04:40:35;;;;;;;2.20;2.00;;;19.20;89.70;19.90;96692.00;;;;5076907;28;20233;-85
2022/06/06 04:43:15;;;;;;;1.60;1.50;;;19.20;89.70;19.90;96684.00;;;;5076958;28;20204;-85
2022/06/06 04:45:54;;;;;;;1.97;1.80;;;19.30;89.60;20.00;96680.00;;;;5076731;28;20203;-85
2022/06/06 04:48:23;;;;;;;2.43;1.73;;;19.30;89.50;20.00;96686.00;;;;5077318;28;20623;-85
2022/06/06 04:50:51;;;;;;;3.63;1.97;;;19.30;90.10;20.00;96683.00;;;;5076594;28;20192;-85
2022/06/06 04:53:26;;;;;;;1.60;1.43;;;19.40;89.60;20.10;96685.00;;;;5076135;28;20726;-86
2022/06/06 04:55:59;;;;;;;2.17;1.90;;;19.40;89.20;20.10;96678.00;;;;5076183;28;20199;-86
2022/06/06 04:58:33;;;;;;;2.77;1.80;;;19.40;89.10;20.10;96681.00;;;;5076506;28;20221;-85
2022/06/06 05:01:04;;;;;;;1.90;1.80;;;19.50;89.10;20.10;96682.00;;;;5076625;28;20272;-85
2022/06/06 05:03:32;;;;;;;2.10;1.50;;;19.50;88.90;20.10;96674.00;;;;5076160;28;20285;-84
2022/06/06 05:06:37;;;;;;;1.90;1.80;;;19.50;88.70;20.10;96687.00;;;;5075075;28;20200;-86
2022/06/06 05:09:36;;;;;;;1.60;1.50;;;19.50;88.20;20.10;96681.00;;;;5056531;28;20223;-85
2022/06/06 05:12:23;;;;;;;1.73;1.47;;;19.50;88.10;20.10;96684.00;;;;5057195;28;20185;-84
2022/06/06 05:15:15;;;;;;;1.77;1.67;;;19.50;88.40;20.10;96682.00;;;;5060159;28;20236;-84
2022/06/06 05:18:16;;;;;;;1.70;1.60;;;19.50;88.30;20.10;96683.00;;;;5059508;28;20229;-84
2022/06/06 05:21:08;;;;;;;1.63;1.50;;;19.50;88.30;20.10;96688.00;;;;5052659;28;20607;-83
2022/06/06 05:24:19;;;;;;;2.03;1.50;;;19.50;88.30;20.10;96684.00;;;;5060101;28;20192;-83
2022/06/06 05:27:20;;;;;;;1.60;1.50;;;19.60;88.20;20.10;96676.00;;;;5032446;28;20221;-83
2022/06/06 05:30:08;;;;;;;1.70;1.60;;;19.60;88.20;20.10;96680.00;;;;5059639;28;20185;-83
2022/06/06 05:33:10;;;;;;;1.53;1.43;;;19.60;88.30;20.10;96675.00;;;;5058693;28;20276;-83
2022/06/06 05:36:17;;;;;;;1.50;1.40;;;19.60;88.30;20.10;96683.00;;;;5060015;28;20566;-84
2022/06/06 05:39:24;;;;;;;1.70;1.60;;;19.60;88.50;20.20;96695.00;;;;5057833;28;20701;-84
2022/06/06 05:42:20;;;;;;;2.07;1.97;;;19.60;88.70;20.30;96694.00;;;;5059770;28;20185;-83
2022/06/06 05:45:14;;;;;;;1.70;1.60;;;19.70;88.90;20.30;96687.00;;;;5059266;28;20258;-83
2022/06/06 05:47:54;;;;;;;2.50;1.63;;;19.70;89.50;20.40;96685.00;;;;5060422;28;20224;-84
2022/06/06 05:50:50;;;;;;;2.20;2.00;;;19.80;89.90;20.50;96695.00;;;;5061514;28;20211;-84
2022/06/06 05:53:47;;;;;;;2.27;1.90;;;19.80;90.00;20.60;96695.00;;;;5060523;28;20200;-83
2022/06/06 05:56:43;;;;;;;2.50;2.30;;;19.90;89.70;20.70;96695.00;;;;5060724;28;20285;-83
2022/06/06 05:59:45;;;;;;;2.87;2.10;;;20.00;89.60;20.80;96701.00;;;;5060365;28;20228;-83
2022/06/06 06:03:18;;;;;;;1.80;1.70;;;20.00;89.70;20.90;96710.00;;;;5059030;28;20220;-83
2022/06/06 06:06:07;;;;;;;1.90;1.80;;;20.10;89.70;20.90;96716.00;;;;5058975;28;20184;-83
2022/06/06 06:09:07;;;;;;;1.80;1.70;;;20.20;89.60;21.00;96716.00;;;;5058838;28;20300;-83
2022/06/06 06:11:55;;;;;;;1.90;1.80;;;20.30;89.80;21.10;96719.00;;;;5058607;28;20208;-83
2022/06/06 06:14:47;;;;;;;2.20;1.80;;;20.30;89.60;21.10;96713.00;;;;5058588;28;20646;-83
2022/06/06 06:17:23;;;;;;;2.13;1.73;;;20.40;89.40;21.20;96712.00;;;;5058593;28;20556;-83
2022/06/06 06:20:04;;;;;;;1.77;1.67;;;20.40;89.70;21.20;96711.00;;;;5058420;28;20180;-84
2022/06/06 06:22:46;;;;;;;1.80;1.70;;;20.50;89.70;21.30;96706.00;;;;5058738;28;20188;-83
2022/06/06 06:25:18;;;;;;;3.53;1.80;;;20.50;89.10;21.30;96704.00;;;;5058205;28;20196;-84
2022/06/06 06:27:47;;;;;;;2.37;1.90;;;20.60;89.30;21.40;96707.00;;;;5058146;28;20230;-83
2022/06/06 06:30:20;;;;;;;2.00;1.90;;;20.60;89.20;21.40;96706.00;;;;5059172;28;20201;-84
2022/06/06 06:33:22;;;;;;;1.80;1.70;;;20.70;88.50;21.40;96716.00;;;;5058921;28;20209;-83
2022/06/06 06:36:09;;;;;;;1.90;1.80;;;20.70;88.40;21.40;96712.00;;;;5046865;28;20267;-83
2022/06/06 06:39:09;;;;;;;2.47;1.73;;;20.80;88.20;21.50;96710.00;;;;5058662;28;20559;-83
2022/06/06 06:41:53;;;;;;;2.10;1.90;;;20.80;88.20;21.50;96712.00;;;;5114463;22;20288;-86
2022/06/06 06:44:31;;;;;;;2.73;2.00;;;20.80;88.50;21.50;96710.00;;;;5091532;28;20264;-86
2022/06/06 06:47:06;;;;;;;2.00;1.90;;;20.80;88.60;21.50;96708.00;;;;5091418;28;20257;-86
2022/06/06 06:49:44;;;;;;;3.07;2.20;;;20.80;88.50;21.50;96704.00;;;;5092066;28;20223;-86
2022/06/06 06:52:34;;;;;;;1.80;1.70;;;20.90;88.10;21.50;96704.00;;;;5092489;28;20628;-86
2022/06/06 06:55:18;;;;;;;2.20;2.10;;;20.90;88.10;21.60;96702.00;;;;5090638;28;20744;-86
2022/06/06 06:58:18;;;;;;;2.27;2.07;;;20.90;88.50;21.60;96710.00;;;;5092714;28;20741;-86
2022/06/06 07:00:54;;;;;;;2.33;2.13;;;21.00;88.30;21.70;96710.00;;;;5094733;28;20237;-86
2022/06/06 07:10:02;;;;;;;2.30;2.20;;;21.20;89.70;22.10;96709.00;;;;5095451;28;20199;-86
2022/06/06 07:12:56;;;;;;;2.17;2.07;;;21.30;90.00;22.20;96711.00;;;;5095382;28;20249;-85
2022/06/06 07:15:45;;;;;;;2.10;2.00;;;21.40;90.10;22.50;96711.00;;;;5094559;28;20282;-87
2022/06/06 07:18:19;;;;;;;2.10;1.93;;;21.60;90.20;22.70;96702.00;;;;5095132;28;20618;-87
2022/06/06 07:20:49;;;;;;;2.30;1.93;;;21.70;90.30;22.90;96704.00;;;;5095063;28;20192;-87
2022/06/06 07:23:21;;;;;;;2.50;2.40;;;21.90;90.20;23.00;96703.00;;;;5094582;28;20199;-87
2022/06/06 07:25:50;;;;;;;2.03;1.93;;;22.00;90.20;23.20;96708.00;;;;5094654;28;20219;-87
2022/06/06 07:28:22;;;;;;;2.10;2.00;;;22.10;90.20;23.40;96703.00;;;;5095201;28;20225;-87
2022/06/06 07:31:02;;;;;;;2.47;2.00;;;22.30;90.20;23.50;96707.00;;;;5094431;28;20279;-87
2022/06/06 07:34:07;;;;;;;1.93;1.80;;;22.40;90.20;23.70;96713.00;;;;5094634;28;20282;-87
2022/06/06 07:36:52;;;;;;;2.30;1.77;;;22.60;89.00;24.00;96714.00;;;;5094735;28;20592;-87
2022/06/06 07:39:37;;;;;;;1.83;1.73;;;22.80;89.50;24.20;96722.00;;;;5094640;28;20229;-87
2022/06/06 07:42:26;;;;;;;1.70;1.60;;;22.90;87.90;24.30;96718.00;;;;5094428;28;20234;-87
2022/06/06 07:45:11;;;;;;;2.30;2.10;;;23.10;85.70;24.40;96716.00;;;;5094953;28;20187;-87
2022/06/06 07:47:57;;;;;;;2.00;1.90;;;23.20;86.40;24.60;96714.00;;;;5094087;28;20742;-87
2022/06/06 07:50:30;;;;;;;2.27;1.90;;;23.30;86.70;24.70;96722.00;;;;5094868;28;20200;-86
2022/06/06 07:53:12;;;;;;;1.80;1.70;;;23.40;87.00;24.80;96718.00;;;;5094764;28;20202;-87
2022/06/06 07:55:56;;;;;;;1.60;1.50;;;23.50;85.50;25.00;96719.00;;;;5094288;28;20203;-87
2022/06/06 07:58:35;;;;;;;1.90;1.70;;;23.60;85.20;25.10;96717.00;;;;5094031;28;20660;-86
2022/06/06 08:01:15;;;;;;;1.90;1.80;;;23.80;84.70;25.20;96723.00;;;;5092439;28;20207;-86
2022/06/06 08:03:51;;;;;;;2.03;1.80;;;23.90;84.10;25.30;96723.00;;;;5094491;28;20560;-87
2022/06/06 08:06:32;;;;;;;2.27;1.90;;;23.90;84.70;25.30;96718.00;;;;5093556;28;20250;-86
2022/06/06 08:09:43;;;;;;;2.17;1.43;;;24.00;84.00;25.30;96721.00;;;;5093155;28;20226;-86
2022/06/06 08:12:42;;;;;;;1.43;1.33;;;24.10;81.10;25.30;96730.00;;;;5094095;28;20664;-87
2022/06/06 08:15:23;;;;;;;1.43;1.33;;;24.10;81.80;25.30;96725.00;;;;5093412;28;20238;-87
2022/06/06 08:18:28;;;;;;;1.73;1.63;;;24.10;80.80;25.20;96721.00;;;;5094058;28;20233;-87
2022/06/06 08:21:06;;;;;;;1.70;1.60;;;24.10;79.30;25.20;96724.00;;;;5094308;28;20551;-87
2022/06/06 08:23:37;;;;;;;2.40;1.70;;;24.10;80.30;25.10;96722.00;;;;5093226;28;20623;-87
2022/06/06 08:26:05;;;;;;;1.50;1.40;;;24.10;80.90;25.10;96730.00;;;;5093890;28;20293;-87
2022/06/06 08:28:35;;;;;;;2.07;1.50;;;24.00;80.60;25.10;96727.00;;;;5093610;28;20658;-87
2022/06/06 08:31:02;;;;;;;1.40;1.30;;;24.00;80.10;25.10;96720.00;;;;5091601;28;20259;-87
2022/06/06 08:33:29;;;;;;;1.60;1.40;;;24.00;79.80;25.10;96723.00;;;;5093661;28;20209;-87
2022/06/06 08:36:22;;;;;;;1.63;1.53;;;24.00;79.60;25.10;96721.00;;;;5092576;28;20253;-87
2022/06/06 08:39:03;;;;;;;1.23;1.23;;;24.00;78.00;25.20;96716.00;;;;5093653;28;20230;-87
2022/06/06 08:42:24;;;;;;;2.27;1.80;;;24.00;77.80;25.30;96723.00;;;;5093538;28;20230;-86
2022/06/06 08:45:14;;;;;;;1.67;1.53;;;24.10;78.20;25.30;96717.00;;;;5068254;28;20234;-86
2022/06/06 08:47:59;;;;;;;1.90;1.80;;;24.10;79.60;25.40;96709.00;;;;5093553;28;20254;-87
2022/06/06 08:50:55;;;;;;;1.87;1.70;;;24.20;79.50;25.50;96703.00;;;;5093038;28;20454;-86
2022/06/06 08:54:32;;;;;;;1.77;1.67;;;24.20;80.20;25.50;96706.00;;;;5093485;28;20206;-87
2022/06/06 08:57:27;;;;;;;2.13;1.50;;;24.30;79.00;25.50;96703.00;;;;5093059;28;20260;-87
2022/06/06 09:00:20;;;;;;;2.00;1.80;;;24.30;79.70;25.40;96702.00;;;;5093096;28;20198;-87
2022/06/06 09:03:39;;;;;;;1.90;1.60;;;24.30;78.80;25.50;96711.00;;;;5073121;28;20248;-87
2022/06/06 09:06:58;;;;;;;1.57;1.47;;;24.30;77.70;25.60;96707.00;;;;5076427;28;20226;-86
2022/06/06 09:10:26;;;;;;;1.87;1.37;;;24.40;78.30;25.50;96710.00;;;;5092383;28;20284;-87
2022/06/06 09:13:51;;;;;;;4.93;1.60;;;24.40;78.10;25.60;96718.00;;;;5092951;28;20205;-86
2022/06/06 09:17:16;;;;;;;1.67;1.57;;;24.40;78.50;25.60;96707.00;;;;5092769;28;20215;-87
2022/06/06 09:20:31;;;;;;;1.57;1.47;;;24.40;78.70;25.70;96706.00;;;;5072122;28;20291;-87
2022/06/06 09:23:45;;;;;;;1.77;1.67;;;24.50;79.30;25.90;96702.00;;;;5046757;28;20235;-87
2022/06/06 09:26:29;;;;;;;1.60;1.50;;;24.60;79.80;26.20;96702.00;;;;5089262;28;20721;-87
2022/06/06 09:29:51;;;;;;;1.70;1.60;;;24.80;80.10;26.40;96694.00;;;;5092464;28;20243;-87
2022/06/06 09:32:50;;;;;;;1.67;1.57;;;25.10;81.30;26.70;96701.00;;;;5093147;28;20631;-87
2022/06/06 09:35:40;;;;;;;2.43;1.60;;;25.40;80.70;27.00;96703.00;;;;5093356;28;20191;-86
2022/06/06 09:38:25;;;;;;;1.70;1.60;;;25.70;78.60;27.30;96703.00;;;;5093085;28;20738;-87
2022/06/06 09:41:07;;;;;;;1.50;1.40;;;26.00;79.60;27.80;96698.00;;;;5092633;28;20202;-87
2022/06/06 09:43:55;;;;;;;1.25;1.23;;;26.30;79.10;28.30;96699.00;;;;5092955;28;20315;-87
2022/06/06 09:47:32;;;;;;;1.65;1.55;;;26.70;77.40;28.90;96699.00;;;;5093042;28;20299;-87
2022/06/06 09:50:49;;;;;;;1.40;1.30;;;27.20;74.70;29.40;96701.00;;;;5077268;28;20215;-87
2022/06/06 09:53:42;;;;;;;1.65;1.55;;;27.80;73.50;29.40;96698.00;;;;5092395;28;20199;-86
2022/06/06 10:00:27;;;;;;;1.50;1.40;;;28.30;72.80;29.70;96701.00;;;;4950691;29;20247;-87
2022/06/06 10:03:57;;;;;;;1.40;1.30;;;28.50;72.90;29.80;96692.00;;;;4952231;29;20756;-87
2022/06/06 10:07:20;;;;;;;1.05;1.05;;;28.70;69.20;30.10;96698.00;;;;5087052;28;20258;-86
2022/06/06 10:10:46;;;;;;;1.40;1.15;;;29.00;70.30;30.20;96694.00;;;;5055856;28;20227;-86
2022/06/06 10:13:37;;;;;;;2.22;1.60;;;29.20;69.60;30.30;96697.00;;;;5063788;28;20277;-87
2022/06/06 10:16:33;;;;;;;1.45;1.35;;;29.30;69.50;30.30;96701.00;;;;5091403;28;20765;-86
2022/06/06 10:19:33;;;;;;;2.85;1.50;;;29.40;66.80;30.30;96698.00;;;;5092443;28;20244;-86
2022/06/06 10:22:42;;;;;;;1.50;1.40;;;29.40;67.10;30.30;96693.00;;;;5092077;28;20729;-86
2022/06/06 10:25:39;;;;;;;1.50;1.40;;;29.50;66.10;30.40;96695.00;;;;5091562;28;20207;-86
2022/06/06 10:28:36;;;;;;;1.50;1.40;;;29.50;65.80;30.30;96688.00;;;;5092098;28;20794;-87
2022/06/06 10:31:23;;;;;;;1.73;1.63;;;29.50;64.10;30.20;96681.00;;;;5092490;28;20199;-86
2022/06/06 10:34:32;;;;;;;1.35;1.30;;;29.40;66.10;30.00;96684.00;;;;5095644;28;20210;-86
2022/06/06 10:37:32;;;;;;;1.48;1.38;;;29.30;63.40;29.80;96676.00;;;;5093093;28;20219;-86
2022/06/06 10:40:41;;;;;;;2.15;1.55;;;29.20;67.20;29.70;96673.00;;;;5080778;28;20203;-86
2022/06/06 10:43:40;;;;;;;1.17;1.17;;;29.20;67.30;29.60;96671.00;;;;5095617;28;20623;-85
2022/06/06 10:46:16;;;;;;;1.38;1.27;;;29.10;66.80;29.50;96668.00;;;;5095948;28;20306;-85
2022/06/06 10:49:21;;;;;;;1.40;1.30;;;29.00;67.40;29.30;96671.00;;;;5096299;28;20195;-85
2022/06/06 10:52:43;;;;;;;1.05;1.05;;;28.80;66.70;29.10;96672.00;;;;5096235;28;20226;-86
2022/06/06 10:56:11;;;;;;;2.60;1.33;;;28.60;64.90;28.90;96671.00;;;;5086766;28;20604;-86
2022/06/06 10:59:39;;;;;;;1.30;1.20;;;28.40;65.20;28.70;96667.00;;;;5029719;28;20240;-87
2022/06/06 11:02:57;;;;;;;1.63;1.52;;;28.20;63.70;28.50;96670.00;;;;5029017;28;20196;-86
2022/06/06 11:06:16;;;;;;;1.23;1.20;;;28.00;65.70;28.40;96657.00;;;;5078683;28;20664;-87
2022/06/06 11:09:33;;;;;;;1.40;1.30;;;27.80;65.20;28.20;96648.00;;;;5094821;28;20247;-86
2022/06/06 11:13:03;;;;;;;1.27;1.17;;;27.60;65.80;28.10;96656.00;;;;5080215;28;20661;-86
2022/06/06 11:15:41;;;;;;;3.45;1.20;;;27.40;67.40;28.00;96652.00;;;;5087730;28;20261;-86
2022/06/06 11:18:42;;;;;;;1.55;1.45;;;27.30;68.00;28.00;96657.00;;;;5095829;28;20224;-86
2022/06/06 11:22:14;;;;;;;1.57;1.47;;;27.20;66.70;27.90;96651.00;;;;5095445;28;20230;-86
2022/06/06 11:24:53;;;;;;;1.60;1.50;;;27.10;66.00;27.90;96645.00;;;;5093008;28;20199;-86
2022/06/06 11:28:35;;;;;;;1.30;1.30;;;27.10;67.70;27.90;96648.00;;;;5095400;28;20206;-86
2022/06/06 11:31:47;;;;;;;1.00;1.00;;;27.00;66.30;27.80;96644.00;;;;5079867;28;20206;-86
2022/06/06 11:35:21;;;;;;;1.00;1.00;;;27.00;66.00;27.80;96644.00;;;;5094939;28;20260;-87
2022/06/06 11:38:45;;;;;;;1.10;1.00;;;26.90;67.40;27.70;96635.00;;;;5033101;28;20722;-87
2022/06/06 11:41:48;;;;;;;1.13;1.13;;;26.90;66.60;27.70;96633.00;;;;5035988;28;20212;-88
2022/06/06 11:44:49;;;;;;;1.23;1.13;;;26.80;66.30;27.70;96633.00;;;;5094109;28;20214;-87
2022/06/06 11:47:51;;;;;;;1.57;1.30;;;26.80;68.10;27.70;96638.00;;;;5095182;28;20227;-87
2022/06/06 11:51:05;;;;;;;2.47;1.40;;;26.80;66.60;27.80;96636.00;;;;5095031;28;20218;-87
2022/06/06 11:54:14;;;;;;;1.60;1.30;;;26.80;67.80;27.90;96631.00;;;;5094803;28;20215;-86
2022/06/06 11:57:30;;;;;;;1.58;1.08;;;26.90;67.50;27.90;96616.00;;;;5094712;28;20254;-87
2022/06/06 12:00:19;;;;;;;3.30;1.40;;;26.90;66.20;28.00;96619.00;;;;5092940;28;20215;-87
2022/06/06 12:03:50;;;;;;;1.40;1.30;;;27.00;68.40;28.10;96611.00;;;;5074665;28;20173;-87
2022/06/06 12:06:51;;;;;;;1.38;1.27;;;27.00;66.90;28.00;96609.00;;;;5074425;28;20705;-89
2022/06/06 12:09:37;;;;;;;1.40;1.30;;;27.10;66.00;28.00;96617.00;;;;5074711;28;20230;-88
2022/06/06 12:12:51;;;;;;;1.30;1.15;;;27.10;67.10;27.90;96615.00;;;;5074525;28;20261;-87
2022/06/06 12:15:46;;;;;;;1.70;1.60;;;27.10;67.80;27.90;96618.00;;;;5074538;28;20187;-86
2022/06/06 12:18:31;;;;;;;3.60;1.40;;;27.10;68.60;27.90;96606.00;;;;5088504;28;20204;-86
2022/06/06 12:21:41;;;;;;;1.65;1.27;;;27.10;68.00;28.00;96603.00;;;;5097602;28;20210;-86
2022/06/06 12:24:45;;;;;;;1.30;1.08;;;27.10;68.00;28.00;96595.00;;;;5085677;28;20200;-86
2022/06/06 12:27:26;;;;;;;1.30;1.20;;;27.10;66.80;28.00;96587.00;;;;5075066;28;20792;-85
2022/06/06 12:30:45;;;;;;;1.30;1.20;;;27.10;67.80;28.00;96585.00;;;;5081426;28;20203;-86
2022/06/06 12:33:18;;;;;;;0.80;0.80;;;27.10;66.20;28.00;96592.00;;;;5069722;28;20282;-86
2022/06/06 12:35:53;;;;;;;1.33;1.20;;;27.10;66.60;28.00;96585.00;;;;5074011;28;20227;-86
2022/06/06 12:38:36;;;;;;;1.47;1.10;;;27.10;66.70;27.90;96593.00;;;;5074285;28;20207;-86
2022/06/06 12:41:45;;;;;;;1.17;1.10;;;27.10;66.10;27.80;96587.00;;;;5073995;28;20288;-86
2022/06/06 12:44:42;;;;;;;1.43;1.10;;;27.10;64.60;27.70;96585.00;;;;5073968;28;20253;-86